Time;durP1;ratioP1;P1;durP2;ratioP2;P2;SDS_P1;SDS_P2;PMS_P1;PMS_P2;Temp;Humidity;BMP_temperature;BMP_pressure;BME280_temperature;BME280_humidity;BME280_pressure;Samples;Min_cycle;Max_cycle;Signal;HPM_P1;HPM_P2
2023/03/24 00:01:08;;;;;;;3.50;1.30;;;;;;;;;;4997845;28;20571;-64
2023/03/24 00:03:35;;;;;;;2.90;1.10;;;;;;;;;;4998399;28;20026;-64
2023/03/24 00:06:01;;;;;;;4.35;1.38;;;;;;;;;;5000752;28;20061;-64
2023/03/24 00:08:30;;;;;;;4.25;1.50;;;;;;;;;;5000124;28;20473;-67
2023/03/24 00:11:00;;;;;;;5.82;1.48;;;;;;;;;;5005626;28;20033;-64
2023/03/24 00:13:25;;;;;;;4.93;1.48;;;;;;;;;;4996619;28;20018;-64
2023/03/24 00:15:50;;;;;;;3.63;1.27;;;;;;;;;;5001314;28;20033;-65
2023/03/24 00:18:17;;;;;;;3.78;1.48;;;;;;;;;;4998093;28;20040;-65
2023/03/24 00:20:44;;;;;;;4.13;1.63;;;;;;;;;;4994467;28;20129;-65
2023/03/24 00:23:09;;;;;;;4.60;1.50;;;;;;;;;;4995128;28;20029;-64
2023/03/24 00:25:35;;;;;;;3.90;1.50;;;;;;;;;;4996486;28;20026;-65
2023/03/24 00:28:00;;;;;;;4.50;1.37;;;;;;;;;;4998669;28;20045;-66
2023/03/24 00:30:25;;;;;;;5.00;1.50;;;;;;;;;;4991546;28;20041;-64
2023/03/24 00:32:51;;;;;;;3.78;1.50;;;;;;;;;;5002915;28;20180;-63
2023/03/24 00:35:17;;;;;;;4.97;1.30;;;;;;;;;;4995547;28;20029;-64
2023/03/24 00:37:43;;;;;;;7.60;1.60;;;;;;;;;;4995081;28;20022;-65
2023/03/24 00:40:12;;;;;;;4.85;1.77;;;;;;;;;;4997904;28;20109;-68
2023/03/24 00:42:39;;;;;;;4.90;1.52;;;;;;;;;;4994422;28;20140;-65
2023/03/24 00:45:05;;;;;;;4.20;1.60;;;;;;;;;;4997133;28;20194;-65
2023/03/24 00:47:35;;;;;;;4.45;1.48;;;;;;;;;;4990686;28;20025;-65
2023/03/24 00:50:01;;;;;;;4.72;1.80;;;;;;;;;;4995145;28;20034;-64
2023/03/24 00:52:32;;;;;;;4.75;1.80;;;;;;;;;;4995256;28;20021;-64
2023/03/24 00:54:58;;;;;;;5.43;1.60;;;;;;;;;;4999086;28;20037;-64
2023/03/24 00:57:24;;;;;;;4.20;1.90;;;;;;;;;;4993975;28;20493;-63
2023/03/24 00:59:50;;;;;;;4.10;1.63;;;;;;;;;;4998073;28;20026;-64
2023/03/24 01:02:18;;;;;;;4.68;1.90;;;;;;;;;;5003772;28;20021;-64
2023/03/24 01:04:46;;;;;;;4.10;1.63;;;;;;;;;;5001327;28;20068;-64
2023/03/24 01:07:11;;;;;;;6.32;1.95;;;;;;;;;;4992246;28;20482;-64
2023/03/24 01:09:36;;;;;;;5.35;1.77;;;;;;;;;;4993862;28;20018;-64
2023/03/24 01:12:03;;;;;;;7.37;1.80;;;;;;;;;;4997842;28;20041;-64
2023/03/24 01:14:28;;;;;;;6.95;2.00;;;;;;;;;;4994492;28;20798;-63
2023/03/24 01:16:53;;;;;;;5.53;1.90;;;;;;;;;;4996942;28;20052;-64
2023/03/24 01:19:18;;;;;;;4.47;2.00;;;;;;;;;;5008110;28;20026;-63
2023/03/24 01:21:43;;;;;;;4.80;2.00;;;;;;;;;;5002458;28;21644;-62
2023/03/24 01:24:09;;;;;;;4.93;2.00;;;;;;;;;;5004419;28;20029;-62
2023/03/24 01:26:34;;;;;;;5.28;2.25;;;;;;;;;;5005335;28;20053;-62
2023/03/24 01:28:59;;;;;;;4.40;2.00;;;;;;;;;;5010667;28;20038;-63
2023/03/24 01:31:24;;;;;;;5.50;2.07;;;;;;;;;;5004740;28;20984;-63
2023/03/24 01:33:50;;;;;;;5.78;1.98;;;;;;;;;;5000761;28;20042;-62
2023/03/24 01:36:15;;;;;;;5.93;2.42;;;;;;;;;;5006050;28;20445;-63
2023/03/24 01:38:40;;;;;;;5.07;2.10;;;;;;;;;;5000179;28;20022;-62
2023/03/24 01:41:05;;;;;;;5.35;1.90;;;;;;;;;;5009732;28;20034;-62
2023/03/24 01:43:32;;;;;;;4.65;2.03;;;;;;;;;;5002778;28;20601;-63
2023/03/24 01:46:04;;;;;;;7.63;2.70;;;;;;;;;;5000210;28;20066;-63
2023/03/24 01:48:33;;;;;;;5.65;2.30;;;;;;;;;;4994294;28;20080;-63
2023/03/24 01:51:00;;;;;;;5.93;2.22;;;;;;;;;;5007632;28;20044;-63
2023/03/24 01:53:25;;;;;;;5.57;2.20;;;;;;;;;;5004028;28;20022;-63
2023/03/24 01:55:51;;;;;;;6.05;2.20;;;;;;;;;;5002955;28;20022;-63
2023/03/24 01:58:17;;;;;;;4.90;2.15;;;;;;;;;;4994678;28;20023;-63
2023/03/24 02:00:42;;;;;;;4.70;2.00;;;;;;;;;;4997782;28;20022;-63
2023/03/24 02:03:10;;;;;;;5.70;2.30;;;;;;;;;;5004631;28;20478;-63
2023/03/24 02:05:37;;;;;;;4.43;1.80;;;;;;;;;;5000348;28;20501;-63
2023/03/24 02:08:12;;;;;;;5.80;2.00;;;;;;;;;;5007628;28;20029;-64
2023/03/24 02:10:37;;;;;;;5.38;2.17;;;;;;;;;;4997496;28;20097;-63
2023/03/24 02:13:03;;;;;;;4.82;2.15;;;;;;;;;;4993468;28;20157;-63
2023/03/24 02:15:30;;;;;;;5.25;2.20;;;;;;;;;;4996068;28;20045;-64
2023/03/24 02:18:01;;;;;;;4.93;2.10;;;;;;;;;;4996166;28;20022;-64
2023/03/24 02:20:35;;;;;;;5.15;2.40;;;;;;;;;;5004034;28;20023;-64
2023/03/24 02:23:19;;;;;;;6.82;2.30;;;;;;;;;;4999073;28;20026;-63
2023/03/24 02:25:53;;;;;;;4.85;2.28;;;;;;;;;;4999321;28;20026;-63
2023/03/24 02:28:31;;;;;;;4.20;2.00;;;;;;;;;;4995430;28;20029;-63
2023/03/24 02:31:11;;;;;;;5.13;2.30;;;;;;;;;;4996075;28;20018;-63
2023/03/24 02:33:55;;;;;;;4.50;2.20;;;;;;;;;;4994315;28;20055;-64
2023/03/24 02:36:32;;;;;;;5.22;2.40;;;;;;;;;;4995171;28;20030;-63
2023/03/24 02:39:09;;;;;;;6.55;2.15;;;;;;;;;;4993168;28;20026;-63
2023/03/24 02:41:41;;;;;;;4.90;1.95;;;;;;;;;;4996783;28;20068;-62
2023/03/24 02:44:15;;;;;;;5.60;2.00;;;;;;;;;;4994420;28;20026;-62
2023/03/24 02:46:52;;;;;;;6.22;2.30;;;;;;;;;;5004744;28;20022;-63
2023/03/24 02:49:32;;;;;;;5.07;2.05;;;;;;;;;;5003565;28;20046;-63
2023/03/24 02:52:00;;;;;;;4.65;2.00;;;;;;;;;;4995259;28;20026;-63
2023/03/24 02:54:45;;;;;;;4.47;1.85;;;;;;;;;;5006705;28;21006;-64
2023/03/24 02:57:30;;;;;;;5.25;1.95;;;;;;;;;;5001423;28;20108;-63
2023/03/24 03:00:18;;;;;;;5.28;1.73;;;;;;;;;;5000212;28;20026;-64
2023/03/24 03:02:45;;;;;;;6.70;2.10;;;;;;;;;;4998056;28;20032;-63
2023/03/24 03:05:13;;;;;;;5.47;2.03;;;;;;;;;;4994219;28;20110;-64
2023/03/24 03:07:40;;;;;;;5.90;2.00;;;;;;;;;;4999006;28;20432;-64
2023/03/24 03:10:09;;;;;;;5.38;2.45;;;;;;;;;;4994196;28;20026;-64
2023/03/24 03:12:36;;;;;;;4.35;1.92;;;;;;;;;;4992710;28;20037;-64
2023/03/24 03:15:05;;;;;;;5.00;2.08;;;;;;;;;;4999360;28;20054;-64
2023/03/24 03:17:33;;;;;;;4.85;1.92;;;;;;;;;;4991559;28;20513;-63
2023/03/24 03:20:06;;;;;;;4.55;2.10;;;;;;;;;;4995465;28;20034;-63
2023/03/24 03:22:36;;;;;;;6.30;2.03;;;;;;;;;;5005615;28;20018;-62
2023/03/24 03:25:02;;;;;;;4.78;2.10;;;;;;;;;;5004222;28;20081;-63
2023/03/24 03:27:30;;;;;;;4.90;1.90;;;;;;;;;;4994061;28;20022;-63
2023/03/24 03:30:01;;;;;;;4.70;1.92;;;;;;;;;;4998070;28;20049;-63
2023/03/24 03:32:28;;;;;;;4.82;1.90;;;;;;;;;;4993893;28;20025;-63
2023/03/24 03:35:12;;;;;;;4.53;1.80;;;;;;;;;;4998622;28;20033;-63
2023/03/24 03:37:42;;;;;;;4.65;2.03;;;;;;;;;;4994400;28;20101;-63
2023/03/24 03:40:10;;;;;;;6.13;2.20;;;;;;;;;;5002008;28;20045;-63
2023/03/24 03:42:35;;;;;;;6.47;2.35;;;;;;;;;;5001698;28;20477;-64
2023/03/24 03:45:01;;;;;;;5.57;1.90;;;;;;;;;;5002713;28;20025;-64
2023/03/24 03:47:26;;;;;;;4.40;1.90;;;;;;;;;;4993501;28;20045;-64
2023/03/24 03:49:51;;;;;;;5.10;2.30;;;;;;;;;;4991816;28;20042;-64
2023/03/24 03:52:16;;;;;;;6.80;2.30;;;;;;;;;;4995547;28;20429;-64
2023/03/24 03:54:42;;;;;;;6.13;2.20;;;;;;;;;;4998597;28;20025;-65
2023/03/24 03:57:07;;;;;;;4.63;1.92;;;;;;;;;;4999551;28;20045;-64
2023/03/24 03:59:35;;;;;;;4.50;1.90;;;;;;;;;;4996832;28;20544;-63
2023/03/24 04:02:03;;;;;;;5.72;2.20;;;;;;;;;;4999386;28;20118;-64
2023/03/24 04:04:37;;;;;;;5.95;1.95;;;;;;;;;;4999522;28;20076;-65
2023/03/24 04:07:06;;;;;;;4.63;1.90;;;;;;;;;;4993734;28;20054;-67
2023/03/24 04:09:50;;;;;;;5.40;1.98;;;;;;;;;;4998357;28;20422;-63
2023/03/24 04:12:34;;;;;;;6.35;2.33;;;;;;;;;;4996429;28;20034;-64
2023/03/24 04:14:59;;;;;;;5.75;2.30;;;;;;;;;;4996395;28;20045;-64
2023/03/24 04:17:38;;;;;;;5.73;1.90;;;;;;;;;;5000031;28;20022;-65
2023/03/24 04:20:25;;;;;;;5.15;2.30;;;;;;;;;;4990665;28;20398;-64
2023/03/24 04:22:59;;;;;;;5.75;1.70;;;;;;;;;;4997976;28;20018;-65
2023/03/24 04:25:33;;;;;;;4.70;1.90;;;;;;;;;;4997452;28;20385;-65
2023/03/24 04:28:04;;;;;;;7.70;2.08;;;;;;;;;;4997676;28;20022;-65
2023/03/24 04:30:49;;;;;;;5.05;1.90;;;;;;;;;;4992900;28;20097;-65
2023/03/24 04:33:21;;;;;;;4.88;2.03;;;;;;;;;;4998134;28;20034;-65
2023/03/24 04:35:49;;;;;;;5.18;2.20;;;;;;;;;;4996795;28;20018;-66
2023/03/24 04:38:16;;;;;;;5.47;2.28;;;;;;;;;;4991854;28;20014;-66
2023/03/24 04:40:42;;;;;;;5.57;2.40;;;;;;;;;;4993803;28;20516;-65
2023/03/24 04:43:08;;;;;;;4.95;2.00;;;;;;;;;;4998645;28;20029;-66
2023/03/24 04:45:35;;;;;;;5.30;2.08;;;;;;;;;;5007352;28;20477;-63
2023/03/24 04:48:03;;;;;;;5.65;2.28;;;;;;;;;;5002958;28;20037;-64
2023/03/24 04:50:35;;;;;;;8.48;2.88;;;;;;;;;;4997614;28;20022;-65
2023/03/24 04:53:00;;;;;;;7.95;3.40;;;;;;;;;;5001917;28;20026;-66
2023/03/24 04:55:44;;;;;;;5.35;2.55;;;;;;;;;;5006020;28;20033;-64
2023/03/24 04:58:10;;;;;;;7.82;2.45;;;;;;;;;;4999096;28;20049;-66
2023/03/24 05:00:35;;;;;;;6.03;2.30;;;;;;;;;;5000881;28;20022;-65
2023/03/24 05:03:01;;;;;;;7.40;2.38;;;;;;;;;;5002573;28;20022;-66
2023/03/24 05:05:27;;;;;;;5.27;2.10;;;;;;;;;;4994230;28;20018;-66
2023/03/24 05:07:53;;;;;;;5.13;2.25;;;;;;;;;;5000167;28;20471;-64
2023/03/24 05:10:18;;;;;;;6.30;2.25;;;;;;;;;;4994455;28;20026;-65
2023/03/24 05:12:43;;;;;;;6.27;2.20;;;;;;;;;;5007977;28;20028;-66
2023/03/24 05:15:09;;;;;;;6.30;2.25;;;;;;;;;;4998726;28;20397;-64
2023/03/24 05:17:34;;;;;;;5.35;2.10;;;;;;;;;;5001166;28;20026;-64
2023/03/24 05:19:59;;;;;;;5.27;2.57;;;;;;;;;;4998925;28;20061;-64
2023/03/24 05:22:25;;;;;;;5.73;2.63;;;;;;;;;;4997365;28;20093;-65
2023/03/24 05:24:50;;;;;;;5.87;2.60;;;;;;;;;;4998560;28;20092;-65
2023/03/24 05:27:15;;;;;;;5.90;2.83;;;;;;;;;;4997539;28;20050;-65
2023/03/24 05:29:40;;;;;;;7.70;3.03;;;;;;;;;;5005279;28;20083;-65
2023/03/24 05:32:05;;;;;;;8.90;3.00;;;;;;;;;;4995263;28;20457;-66
2023/03/24 05:34:31;;;;;;;6.63;3.07;;;;;;;;;;5003365;28;20029;-65
2023/03/24 05:36:56;;;;;;;6.27;2.70;;;;;;;;;;4997380;28;20515;-65
2023/03/24 05:39:21;;;;;;;7.60;3.10;;;;;;;;;;5006598;28;20025;-65
2023/03/24 05:41:46;;;;;;;6.00;2.90;;;;;;;;;;5005489;28;20083;-64
2023/03/24 05:44:11;;;;;;;9.48;3.80;;;;;;;;;;5000026;28;20824;-65
2023/03/24 05:46:37;;;;;;;13.57;5.05;;;;;;;;;;4998263;28;20042;-65
2023/03/24 05:49:02;;;;;;;8.43;3.50;;;;;;;;;;4992718;28;20026;-65
2023/03/24 05:51:27;;;;;;;7.90;3.30;;;;;;;;;;5001463;28;20057;-65
2023/03/24 05:53:52;;;;;;;6.38;2.95;;;;;;;;;;4999800;28;20045;-65
2023/03/24 05:56:17;;;;;;;6.50;2.85;;;;;;;;;;4996768;28;20112;-64
2023/03/24 05:58:43;;;;;;;7.70;2.90;;;;;;;;;;4999417;28;20026;-64
2023/03/24 06:01:09;;;;;;;6.32;3.20;;;;;;;;;;4996424;28;20018;-65
2023/03/24 06:03:37;;;;;;;6.20;2.70;;;;;;;;;;4995724;28;20651;-64
2023/03/24 06:06:03;;;;;;;5.55;2.83;;;;;;;;;;4999066;28;20042;-65
2023/03/24 06:08:32;;;;;;;7.18;2.72;;;;;;;;;;4997153;28;20057;-65
2023/03/24 06:10:59;;;;;;;5.40;2.78;;;;;;;;;;5000979;28;20079;-66
2023/03/24 06:13:24;;;;;;;5.82;2.58;;;;;;;;;;4993636;28;20733;-65
2023/03/24 06:15:49;;;;;;;6.55;3.05;;;;;;;;;;4995727;28;20034;-65
2023/03/24 06:18:14;;;;;;;7.80;2.97;;;;;;;;;;5004360;28;20026;-65
2023/03/24 06:20:40;;;;;;;6.05;3.10;;;;;;;;;;4997882;28;20029;-65
2023/03/24 06:23:05;;;;;;;8.45;2.88;;;;;;;;;;4997774;28;20105;-65
2023/03/24 06:25:32;;;;;;;8.38;3.15;;;;;;;;;;5000815;28;20034;-64
2023/03/24 06:28:02;;;;;;;7.55;3.05;;;;;;;;;;4995813;28;20058;-66
2023/03/24 06:30:28;;;;;;;8.20;2.80;;;;;;;;;;4993516;28;20113;-67
2023/03/24 06:32:53;;;;;;;6.70;3.00;;;;;;;;;;4998013;28;20113;-65
2023/03/24 06:35:18;;;;;;;8.07;3.00;;;;;;;;;;5013172;28;20386;-63
2023/03/24 06:37:43;;;;;;;8.70;2.80;;;;;;;;;;5012356;28;20047;-64
2023/03/24 06:40:11;;;;;;;6.70;2.70;;;;;;;;;;5008674;28;20418;-66
2023/03/24 06:42:37;;;;;;;5.25;2.70;;;;;;;;;;4993340;28;20512;-64
2023/03/24 06:45:02;;;;;;;10.35;2.92;;;;;;;;;;4993770;28;20037;-64
2023/03/24 06:47:28;;;;;;;9.18;3.20;;;;;;;;;;4992736;28;20052;-65
2023/03/24 06:49:53;;;;;;;7.32;2.47;;;;;;;;;;5001804;28;20030;-64
2023/03/24 06:52:18;;;;;;;7.67;2.60;;;;;;;;;;5004048;28;20026;-65
2023/03/24 06:54:43;;;;;;;7.78;2.70;;;;;;;;;;5002298;28;20022;-65
2023/03/24 06:57:08;;;;;;;5.78;2.58;;;;;;;;;;5004094;28;20029;-65
2023/03/24 06:59:34;;;;;;;5.05;2.10;;;;;;;;;;5003400;28;20047;-64
2023/03/24 07:02:00;;;;;;;6.30;2.47;;;;;;;;;;4998242;28;20029;-65
2023/03/24 07:04:26;;;;;;;6.75;2.35;;;;;;;;;;5001715;28;20029;-63
2023/03/24 07:06:51;;;;;;;7.78;2.47;;;;;;;;;;5006252;28;20025;-65
2023/03/24 07:09:17;;;;;;;6.13;2.40;;;;;;;;;;4994594;28;20085;-64
2023/03/24 07:11:42;;;;;;;6.60;2.47;;;;;;;;;;4995900;28;20094;-65
2023/03/24 07:14:07;;;;;;;6.60;2.20;;;;;;;;;;5010082;28;20026;-66
2023/03/24 07:16:33;;;;;;;4.28;2.00;;;;;;;;;;5008665;28;20050;-65
2023/03/24 07:18:58;;;;;;;6.00;2.27;;;;;;;;;;5009562;28;20088;-65
2023/03/24 07:21:23;;;;;;;7.68;2.40;;;;;;;;;;4993087;28;20046;-64
2023/03/24 07:23:48;;;;;;;7.60;2.20;;;;;;;;;;5004990;28;20018;-66
2023/03/24 07:26:14;;;;;;;4.53;2.03;;;;;;;;;;4996252;28;20093;-65
2023/03/24 07:28:39;;;;;;;5.82;2.17;;;;;;;;;;5009816;28;20496;-65
2023/03/24 07:31:05;;;;;;;5.30;2.08;;;;;;;;;;4996486;28;20538;-65
2023/03/24 07:33:30;;;;;;;4.85;2.05;;;;;;;;;;5008124;28;20018;-66
2023/03/24 07:35:56;;;;;;;4.50;2.10;;;;;;;;;;5011299;28;20389;-66
2023/03/24 07:38:22;;;;;;;4.82;2.00;;;;;;;;;;5009454;28;20030;-65
2023/03/24 07:40:47;;;;;;;4.47;1.90;;;;;;;;;;4991824;28;20030;-64
2023/03/24 07:43:13;;;;;;;4.85;2.00;;;;;;;;;;4995265;28;20014;-65
2023/03/24 07:45:38;;;;;;;4.35;1.80;;;;;;;;;;5001587;28;20018;-64
2023/03/24 07:48:03;;;;;;;7.28;2.10;;;;;;;;;;5007497;28;20547;-65
2023/03/24 07:50:29;;;;;;;6.73;2.10;;;;;;;;;;5001574;28;20022;-65
2023/03/24 07:52:54;;;;;;;5.72;2.13;;;;;;;;;;5005418;28;20022;-65
2023/03/24 07:55:19;;;;;;;5.37;2.10;;;;;;;;;;5010745;28;20386;-64
2023/03/24 07:57:45;;;;;;;5.60;2.00;;;;;;;;;;5010583;28;20025;-65
2023/03/24 08:00:14;;;;;;;6.47;2.00;;;;;;;;;;5011448;28;20420;-64
2023/03/24 08:02:40;;;;;;;5.10;1.80;;;;;;;;;;5011345;28;20013;-65
2023/03/24 08:05:05;;;;;;;4.85;1.90;;;;;;;;;;5011407;28;20022;-63
2023/03/24 08:07:31;;;;;;;5.43;1.60;;;;;;;;;;4999250;28;20104;-64
2023/03/24 08:09:56;;;;;;;5.22;1.63;;;;;;;;;;4991892;28;20026;-65
2023/03/24 08:12:21;;;;;;;5.18;1.55;;;;;;;;;;4991524;28;20033;-64
2023/03/24 08:14:46;;;;;;;5.63;1.70;;;;;;;;;;4992167;28;20034;-64
2023/03/24 08:17:11;;;;;;;4.15;1.80;;;;;;;;;;4991586;28;20026;-65
2023/03/24 08:19:36;;;;;;;4.10;1.40;;;;;;;;;;4991173;28;20029;-65
2023/03/24 08:22:01;;;;;;;4.53;1.63;;;;;;;;;;4991522;28;20026;-66
2023/03/24 08:24:27;;;;;;;4.73;1.80;;;;;;;;;;4991758;28;20023;-65
2023/03/24 08:26:52;;;;;;;3.83;1.55;;;;;;;;;;4991068;28;20116;-65
2023/03/24 08:29:17;;;;;;;4.03;1.60;;;;;;;;;;4991614;28;20104;-64
2023/03/24 08:31:42;;;;;;;5.60;1.73;;;;;;;;;;4991377;28;20022;-65
2023/03/24 08:34:10;;;;;;;3.97;1.40;;;;;;;;;;4991667;28;20022;-65
2023/03/24 08:36:35;;;;;;;5.05;1.63;;;;;;;;;;5000874;28;20038;-64
2023/03/24 08:39:00;;;;;;;4.85;1.75;;;;;;;;;;4993376;28;20225;-65
2023/03/24 08:41:33;;;;;;;5.47;1.70;;;;;;;;;;4991438;28;20046;-66
2023/03/24 08:44:00;;;;;;;4.38;1.58;;;;;;;;;;4990591;28;20034;-65
2023/03/24 08:46:25;;;;;;;6.18;1.52;;;;;;;;;;5003093;28;20381;-65
2023/03/24 08:48:50;;;;;;;5.80;1.58;;;;;;;;;;5011226;28;20030;-64
2023/03/24 08:51:16;;;;;;;4.28;1.73;;;;;;;;;;5010289;28;20030;-65
2023/03/24 08:53:42;;;;;;;4.95;1.70;;;;;;;;;;5010435;28;20057;-65
2023/03/24 08:56:07;;;;;;;4.35;1.70;;;;;;;;;;5010684;28;20424;-65
2023/03/24 08:58:32;;;;;;;4.97;1.70;;;;;;;;;;5011223;28;20022;-64
2023/03/24 09:00:58;;;;;;;4.30;1.40;;;;;;;;;;5010510;28;20029;-65
2023/03/24 09:03:23;;;;;;;4.15;1.50;;;;;;;;;;4991475;28;20105;-64
2023/03/24 09:05:48;;;;;;;4.40;1.52;;;;;;;;;;4991570;28;20087;-64
2023/03/24 09:08:15;;;;;;;4.55;1.48;;;;;;;;;;4991227;28;20033;-64
2023/03/24 09:10:41;;;;;;;4.35;1.63;;;;;;;;;;4991493;28;20030;-65
2023/03/24 09:13:06;;;;;;;5.93;1.58;;;;;;;;;;4990765;28;20018;-64
2023/03/24 09:15:32;;;;;;;3.90;1.60;;;;;;;;;;4991115;28;20022;-64
2023/03/24 09:17:57;;;;;;;4.35;1.58;;;;;;;;;;4990361;28;20026;-65
2023/03/24 09:20:22;;;;;;;4.10;1.50;;;;;;;;;;4990850;28;20026;-65
2023/03/24 09:22:47;;;;;;;4.97;1.30;;;;;;;;;;4990752;28;20441;-66
2023/03/24 09:25:16;;;;;;;4.73;1.63;;;;;;;;;;4990866;28;20045;-65
2023/03/24 09:27:42;;;;;;;5.45;1.70;;;;;;;;;;4990086;28;20557;-66
2023/03/24 09:30:08;;;;;;;6.23;1.60;;;;;;;;;;4990996;28;20026;-64
2023/03/24 09:32:33;;;;;;;3.35;1.42;;;;;;;;;;4993646;28;20030;-66
2023/03/24 09:34:58;;;;;;;4.60;1.70;;;;;;;;;;4999302;28;20029;-66
2023/03/24 09:37:23;;;;;;;4.57;1.70;;;;;;;;;;4997564;28;20018;-66
2023/03/24 09:39:49;;;;;;;5.37;1.70;;;;;;;;;;4997659;28;20479;-65
2023/03/24 09:42:20;;;;;;;4.32;1.70;;;;;;;;;;5012233;28;20029;-64
2023/03/24 09:44:46;;;;;;;4.47;1.75;;;;;;;;;;5013567;28;20025;-65
2023/03/24 09:47:12;;;;;;;6.35;1.85;;;;;;;;;;5012887;28;20025;-65
2023/03/24 09:49:40;;;;;;;3.70;1.50;;;;;;;;;;5013767;28;20064;-66
2023/03/24 09:52:06;;;;;;;4.45;1.60;;;;;;;;;;5002730;28;20019;-66
2023/03/24 09:54:37;;;;;;;5.05;1.60;;;;;;;;;;4994256;28;20061;-64
2023/03/24 09:57:03;;;;;;;5.55;1.70;;;;;;;;;;4993628;28;20030;-64
2023/03/24 09:59:31;;;;;;;4.88;1.48;;;;;;;;;;4994136;28;20022;-65
2023/03/24 10:01:57;;;;;;;3.83;1.48;;;;;;;;;;4993780;28;20081;-64
2023/03/24 10:04:25;;;;;;;5.13;1.50;;;;;;;;;;4993707;28;20516;-64
2023/03/24 10:07:15;;;;;;;3.72;1.40;;;;;;;;;;4993148;28;20485;-64
2023/03/24 10:09:43;;;;;;;5.10;1.50;;;;;;;;;;5010710;28;20049;-65
2023/03/24 10:12:27;;;;;;;4.22;1.48;;;;;;;;;;5011337;28;20037;-65
2023/03/24 10:15:01;;;;;;;4.57;1.48;;;;;;;;;;5012974;28;20026;-65
2023/03/24 10:17:39;;;;;;;4.28;1.40;;;;;;;;;;5012774;28;20022;-65
2023/03/24 10:20:06;;;;;;;4.38;1.30;;;;;;;;;;4998629;28;20113;-65
2023/03/24 10:22:37;;;;;;;4.22;1.35;;;;;;;;;;4993638;28;20034;-65
2023/03/24 10:25:07;;;;;;;4.03;1.40;;;;;;;;;;4993409;28;20064;-65
2023/03/24 10:27:35;;;;;;;3.65;1.17;;;;;;;;;;4992832;28;20034;-65
2023/03/24 10:30:03;;;;;;;3.70;1.00;;;;;;;;;;4993200;28;20030;-65
2023/03/24 10:32:30;;;;;;;3.75;0.80;;;;;;;;;;4993176;28;20534;-65
2023/03/24 10:35:06;;;;;;;2.42;0.68;;;;;;;;;;4993483;28;20026;-65
2023/03/24 10:37:31;;;;;;;2.50;0.77;;;;;;;;;;4992443;28;20415;-65
2023/03/24 10:39:57;;;;;;;2.47;0.70;;;;;;;;;;4993499;28;20057;-65
2023/03/24 10:42:27;;;;;;;2.38;0.70;;;;;;;;;;4992229;28;20471;-65
2023/03/24 10:44:52;;;;;;;3.03;0.60;;;;;;;;;;4998508;28;20037;-66
2023/03/24 10:47:21;;;;;;;1.88;0.63;;;;;;;;;;5010325;28;20030;-65
2023/03/24 10:49:53;;;;;;;2.13;0.70;;;;;;;;;;5010937;28;20425;-66
2023/03/24 10:52:19;;;;;;;3.88;0.65;;;;;;;;;;5011897;28;20022;-65
2023/03/24 10:54:52;;;;;;;1.90;0.63;;;;;;;;;;5012717;28;20024;-65
2023/03/24 10:57:18;;;;;;;1.75;0.60;;;;;;;;;;5011723;28;20026;-66
2023/03/24 10:59:46;;;;;;;1.60;0.60;;;;;;;;;;5012480;28;20018;-65
2023/03/24 11:02:14;;;;;;;3.13;0.70;;;;;;;;;;5012022;28;20026;-65
2023/03/24 11:04:42;;;;;;;1.90;0.70;;;;;;;;;;4996293;28;20453;-66
2023/03/24 11:07:19;;;;;;;1.98;0.50;;;;;;;;;;4992085;28;20113;-66
2023/03/24 11:10:17;;;;;;;1.77;0.60;;;;;;;;;;4992963;28;20045;-65
2023/03/24 11:12:51;;;;;;;1.92;0.60;;;;;;;;;;4959543;28;20585;-66
2023/03/24 11:15:21;;;;;;;2.17;0.60;;;;;;;;;;4991258;28;20026;-66
2023/03/24 11:17:47;;;;;;;1.80;0.50;;;;;;;;;;4991968;28;20026;-66
2023/03/24 11:20:12;;;;;;;;;;;;;;;;;;4993277;28;20018;-66
2023/03/24 11:22:38;;;;;;;1.83;0.52;;;;;;;;;;4992263;28;19912;-66
2023/03/24 11:25:08;;;;;;;2.17;0.60;;;;;;;;;;4992353;28;20018;-66
2023/03/24 11:27:40;;;;;;;2.35;0.70;;;;;;;;;;4991361;28;20026;-66
2023/03/24 11:30:11;;;;;;;3.17;0.70;;;;;;;;;;4992591;28;20033;-66
2023/03/24 11:32:36;;;;;;;3.58;0.70;;;;;;;;;;4992102;28;20450;-66
2023/03/24 11:35:04;;;;;;;1.67;0.60;;;;;;;;;;5010392;28;20054;-65
2023/03/24 11:37:32;;;;;;;2.30;0.60;;;;;;;;;;5011069;28;20021;-66
2023/03/24 11:40:13;;;;;;;2.92;0.70;;;;;;;;;;5011701;28;20087;-67
2023/03/24 11:42:43;;;;;;;2.17;0.70;;;;;;;;;;5011827;28;20018;-66
2023/03/24 11:45:27;;;;;;;2.28;0.65;;;;;;;;;;5011962;28;20018;-66
2023/03/24 11:47:57;;;;;;;2.15;0.70;;;;;;;;;;5010374;28;20026;-65
2023/03/24 11:50:24;;;;;;;2.08;0.60;;;;;;;;;;5011581;28;20037;-66
2023/03/24 11:52:53;;;;;;;2.38;0.70;;;;;;;;;;5007193;28;20049;-64
2023/03/24 11:55:28;;;;;;;3.42;0.65;;;;;;;;;;5011259;28;20072;-65
2023/03/24 11:58:00;;;;;;;2.10;0.60;;;;;;;;;;5010688;28;20018;-65
2023/03/24 12:00:25;;;;;;;;;;;;;;;;;;5011674;28;20076;-66
2023/03/24 12:03:00;;;;;;;1.55;0.60;;;;;;;;;;5011101;28;19913;-66
2023/03/24 12:05:46;;;;;;;4.03;0.68;;;;;;;;;;5011455;28;20018;-65
2023/03/24 12:08:30;;;;;;;1.83;0.70;;;;;;;;;;4993710;28;20076;-65
2023/03/24 12:11:13;;;;;;;2.10;0.65;;;;;;;;;;4991908;28;20109;-65
2023/03/24 12:13:43;;;;;;;2.28;0.60;;;;;;;;;;4991409;28;20060;-66
2023/03/24 12:16:12;;;;;;;1.52;0.60;;;;;;;;;;4991537;28;20026;-66
2023/03/24 12:18:46;;;;;;;1.55;0.60;;;;;;;;;;4991470;28;20050;-66
2023/03/24 12:21:20;;;;;;;1.95;0.60;;;;;;;;;;4991631;28;20054;-66
2023/03/24 12:23:58;;;;;;;1.80;0.63;;;;;;;;;;4991604;28;20022;-66
2023/03/24 12:26:26;;;;;;;3.17;0.65;;;;;;;;;;4991099;28;20046;-66
2023/03/24 12:29:06;;;;;;;1.83;0.63;;;;;;;;;;4991550;28;20040;-67
2023/03/24 12:31:40;;;;;;;1.92;0.50;;;;;;;;;;4991865;28;20093;-65
2023/03/24 12:34:06;;;;;;;1.95;0.60;;;;;;;;;;4991936;28;20025;-65
2023/03/24 12:36:40;;;;;;;1.83;0.50;;;;;;;;;;4991426;28;20034;-65
2023/03/24 12:39:08;;;;;;;3.25;0.70;;;;;;;;;;4997672;28;20030;-67
2023/03/24 12:41:52;;;;;;;1.38;0.65;;;;;;;;;;5011104;28;20022;-64
2023/03/24 12:44:32;;;;;;;4.00;0.60;;;;;;;;;;5008737;28;20030;-66
2023/03/24 12:47:05;;;;;;;2.13;0.60;;;;;;;;;;4993871;28;20030;-65
2023/03/24 12:49:32;;;;;;;3.80;0.70;;;;;;;;;;4990862;28;20504;-65
2023/03/24 12:52:15;;;;;;;1.65;0.60;;;;;;;;;;4990947;28;20022;-65
2023/03/24 12:54:48;;;;;;;2.00;0.65;;;;;;;;;;4994115;28;20018;-65
2023/03/24 12:57:16;;;;;;;3.05;0.70;;;;;;;;;;4992960;28;20018;-66
2023/03/24 12:59:56;;;;;;;1.25;0.55;;;;;;;;;;4991329;28;20381;-67
2023/03/24 13:02:25;;;;;;;1.60;0.52;;;;;;;;;;4994420;28;20370;-67
2023/03/24 13:04:52;;;;;;;1.92;0.60;;;;;;;;;;4996129;28;20117;-64
2023/03/24 13:07:19;;;;;;;1.48;0.50;;;;;;;;;;4993750;28;20058;-65
2023/03/24 13:09:48;;;;;;;2.08;0.55;;;;;;;;;;4995152;28;20018;-64
2023/03/24 13:12:18;;;;;;;2.15;0.50;;;;;;;;;;5001801;28;20026;-64
2023/03/24 13:14:53;;;;;;;2.47;0.70;;;;;;;;;;4995836;28;20018;-64
2023/03/24 13:17:21;;;;;;;3.08;0.90;;;;;;;;;;4995931;28;20037;-65
2023/03/24 13:19:47;;;;;;;2.28;0.80;;;;;;;;;;5011388;28;20194;-66
2023/03/24 13:22:12;;;;;;;;;;;;;;;;;;5006464;28;20021;-66
2023/03/24 13:24:38;;;;;;;2.90;0.77;;;;;;;;;;5004157;28;19918;-66
2023/03/24 13:27:38;;;;;;;1.47;0.60;;;;;;;;;;5004134;28;20023;-65
2023/03/24 13:30:06;;;;;;;1.60;0.57;;;;;;;;;;4946784;28;20490;-66
2023/03/24 13:32:43;;;;;;;2.80;0.68;;;;;;;;;;4990715;28;20468;-65
2023/03/24 13:35:35;;;;;;;2.80;0.90;;;;;;;;;;5002741;28;20381;-64
2023/03/24 13:38:04;;;;;;;1.77;0.70;;;;;;;;;;4998605;28;20040;-64
2023/03/24 13:40:31;;;;;;;1.48;0.60;;;;;;;;;;4994285;28;20018;-65
2023/03/24 13:42:57;;;;;;;1.85;0.70;;;;;;;;;;4996310;28;20597;-66
2023/03/24 13:45:37;;;;;;;2.33;0.70;;;;;;;;;;5012267;28;20026;-65
2023/03/24 13:48:05;;;;;;;2.50;0.80;;;;;;;;;;4994433;28;20142;-66
2023/03/24 13:50:31;;;;;;;1.73;0.70;;;;;;;;;;5004332;28;20095;-65
2023/03/24 13:53:00;;;;;;;1.80;0.70;;;;;;;;;;5001560;28;20478;-65
2023/03/24 13:55:27;;;;;;;3.35;0.80;;;;;;;;;;4999011;28;20032;-65
2023/03/24 13:57:52;;;;;;;;;;;;;;;;;;5003924;28;20161;-65
2023/03/24 14:00:26;;;;;;;3.20;0.70;;;;;;;;;;5006239;28;19959;-65
2023/03/24 14:02:54;;;;;;;2.17;0.70;;;;;;;;;;5011912;28;20044;-64
2023/03/24 14:05:30;;;;;;;1.90;0.70;;;;;;;;;;4993713;28;20113;-65
2023/03/24 14:08:04;;;;;;;2.50;0.70;;;;;;;;;;4993508;28;20033;-66
2023/03/24 14:10:43;;;;;;;2.80;0.70;;;;;;;;;;4994204;28;20038;-66
2023/03/24 14:13:11;;;;;;;8.30;1.10;;;;;;;;;;4993749;28;20022;-66
2023/03/24 14:15:42;;;;;;;6.13;1.25;;;;;;;;;;4999831;28;20436;-65
2023/03/24 14:18:23;;;;;;;5.30;0.90;;;;;;;;;;5001148;28;20486;-65
2023/03/24 14:21:05;;;;;;;4.80;0.70;;;;;;;;;;4993462;28;20029;-65
2023/03/24 14:23:38;;;;;;;5.82;0.85;;;;;;;;;;5004359;28;20056;-65
2023/03/24 14:26:05;;;;;;;2.95;0.85;;;;;;;;;;5004662;28;20042;-65
2023/03/24 14:28:38;;;;;;;5.95;0.88;;;;;;;;;;5001595;28;20037;-65
2023/03/24 14:31:14;;;;;;;4.88;0.80;;;;;;;;;;5001559;28;20058;-65
2023/03/24 14:33:41;;;;;;;3.45;0.80;;;;;;;;;;5002354;28;20018;-65
2023/03/24 14:36:13;;;;;;;3.40;0.90;;;;;;;;;;5001161;28;20127;-64
2023/03/24 14:38:43;;;;;;;2.60;0.82;;;;;;;;;;5004365;28;20438;-65
2023/03/24 14:41:16;;;;;;;4.57;0.98;;;;;;;;;;5000066;28;20132;-65
2023/03/24 14:43:42;;;;;;;5.30;0.90;;;;;;;;;;5005847;28;20411;-64
2023/03/24 14:46:19;;;;;;;3.17;1.00;;;;;;;;;;4996498;28;20045;-65
2023/03/24 14:49:04;;;;;;;3.00;0.80;;;;;;;;;;4994755;28;20497;-63
2023/03/24 14:51:40;;;;;;;3.25;1.00;;;;;;;;;;4991905;28;20030;-64
2023/03/24 14:54:12;;;;;;;3.15;1.00;;;;;;;;;;4989989;28;20030;-64